createdAt,value
2022-08-02T00:00:34.161Z,99.90
2022-08-02T00:03:00.974Z,99.90
2022-08-02T00:05:27.856Z,99.90
2022-08-02T00:07:54.669Z,99.90
2022-08-02T00:10:21.504Z,99.90
2022-08-02T00:12:48.318Z,99.90
2022-08-02T00:15:16.039Z,99.90
2022-08-02T00:17:44.521Z,99.90
2022-08-02T00:20:12.696Z,99.90
2022-08-02T00:22:39.639Z,99.90
2022-08-02T00:25:07.236Z,99.90
2022-08-02T00:27:34.174Z,99.90
2022-08-02T00:30:00.969Z,99.90
2022-08-02T00:32:27.764Z,99.90
2022-08-02T00:34:54.537Z,99.90
2022-08-02T00:37:21.341Z,99.90
2022-08-02T00:39:48.260Z,99.90
2022-08-02T00:42:16.128Z,99.90
2022-08-02T00:44:43.293Z,99.90
2022-08-02T00:47:10.315Z,99.90
2022-08-02T00:49:37.589Z,99.90
2022-08-02T00:52:05.329Z,99.90
2022-08-02T00:54:32.146Z,99.90
2022-08-02T00:56:58.922Z,99.90
2022-08-02T00:59:25.826Z,99.90
2022-08-02T01:01:56.937Z,99.90
2022-08-02T01:04:31.256Z,99.90
2022-08-02T01:07:12.787Z,99.90
2022-08-02T01:09:44.303Z,99.90
2022-08-02T01:12:12.144Z,99.90
2022-08-02T01:14:41.007Z,99.90
2022-08-02T01:17:19.669Z,99.90
2022-08-02T01:20:10.949Z,99.90
2022-08-02T01:23:03.626Z,99.90
2022-08-02T01:25:45.303Z,99.90
2022-08-02T01:28:37.234Z,99.90
2022-08-02T01:31:31.312Z,99.90
2022-08-02T01:34:24.486Z,99.90
2022-08-02T01:37:20.607Z,99.90
2022-08-02T01:39:51.939Z,99.90
2022-08-02T01:42:21.525Z,99.90
2022-08-02T01:44:50.899Z,99.90
2022-08-02T01:47:22.739Z,99.90
2022-08-02T01:49:53.106Z,99.90
2022-08-02T01:52:21.886Z,99.90
2022-08-02T01:55:18.651Z,99.90
2022-08-02T01:57:49.613Z,99.90
2022-08-02T02:00:17.910Z,99.90
2022-08-02T02:02:47.708Z,99.90
2022-08-02T02:05:18.270Z,99.90
2022-08-02T02:07:47.026Z,99.90
2022-08-02T02:10:16.685Z,99.90
2022-08-02T02:12:47.735Z,99.90
2022-08-02T02:15:15.286Z,99.90
2022-08-02T02:17:50.622Z,99.90
2022-08-02T02:20:32.733Z,99.90
2022-08-02T02:22:59.990Z,99.90
2022-08-02T02:25:35.826Z,99.90
2022-08-02T02:28:14.994Z,99.90
2022-08-02T02:30:48.589Z,99.90
2022-08-02T02:33:19.238Z,99.90
2022-08-02T02:35:47.809Z,99.90
2022-08-02T02:38:18.366Z,99.90
2022-08-02T02:40:49.016Z,99.90
2022-08-02T02:43:17.316Z,99.90
2022-08-02T02:45:45.558Z,99.90
2022-08-02T02:48:15.061Z,99.90
2022-08-02T02:50:43.114Z,99.90
2022-08-02T02:53:11.595Z,99.90
2022-08-02T02:55:38.932Z,99.90
2022-08-02T02:58:06.747Z,99.90
2022-08-02T03:00:52.556Z,99.90
2022-08-02T03:03:21.310Z,99.90
2022-08-02T03:05:48.532Z,99.90
2022-08-02T03:08:15.513Z,99.90
2022-08-02T03:10:44.452Z,99.90
2022-08-02T03:13:12.293Z,99.90
2022-08-02T03:15:41.354Z,99.90
2022-08-02T03:18:08.662Z,99.90
2022-08-02T03:20:35.649Z,99.90
2022-08-02T03:23:02.472Z,99.90
2022-08-02T03:25:29.227Z,99.90
2022-08-02T03:27:56.065Z,99.90
2022-08-02T03:30:26.868Z,99.90
2022-08-02T03:32:53.710Z,99.90
2022-08-02T03:35:24.059Z,99.90
2022-08-02T03:37:52.536Z,99.90
2022-08-02T03:40:19.690Z,99.90
2022-08-02T03:42:47.723Z,99.90
2022-08-02T03:45:15.029Z,99.90
2022-08-02T03:47:44.259Z,99.90
2022-08-02T03:50:13.447Z,99.90
2022-08-02T03:52:44.916Z,99.90
2022-08-02T03:55:13.420Z,99.90
2022-08-02T03:57:42.081Z,99.90
2022-08-02T04:00:11.203Z,99.90
2022-08-02T04:02:38.049Z,99.90
2022-08-02T04:05:05.227Z,99.90
2022-08-02T04:08:33.621Z,99.90
2022-08-02T04:10:18.852Z,99.90
2022-08-02T04:12:45.789Z,99.90
2022-08-02T04:15:14.799Z,99.90
2022-08-02T04:17:46.060Z,99.90
2022-08-02T04:20:21.315Z,99.90
2022-08-02T04:22:53.129Z,99.90
2022-08-02T04:25:20.800Z,99.90
2022-08-02T04:28:15.450Z,99.90
2022-08-02T04:30:45.121Z,99.90
2022-08-02T04:33:12.314Z,99.90
2022-08-02T04:35:39.053Z,99.90
2022-08-02T04:38:10.107Z,99.90
2022-08-02T04:40:38.197Z,99.90
2022-08-02T04:43:05.163Z,99.90
2022-08-02T04:45:32.515Z,99.90
2022-08-02T04:48:05.005Z,99.90
2022-08-02T04:50:32.720Z,99.90
2022-08-02T04:52:59.522Z,99.90
2022-08-02T04:55:29.463Z,99.90
2022-08-02T04:57:57.810Z,99.90
2022-08-02T05:00:26.707Z,99.90
2022-08-02T05:02:54.279Z,99.90
2022-08-02T05:05:21.364Z,99.90
2022-08-02T05:07:48.337Z,99.90
2022-08-02T05:10:15.380Z,99.90
2022-08-02T05:12:42.387Z,99.90
2022-08-02T05:15:12.665Z,99.90
2022-08-02T05:17:47.551Z,99.90
2022-08-02T05:20:19.081Z,99.90
2022-08-02T05:22:46.610Z,99.90
2022-08-02T05:25:13.575Z,99.90
2022-08-02T05:27:40.464Z,99.90
2022-08-02T05:30:08.338Z,99.90
2022-08-02T05:32:35.834Z,99.90
2022-08-02T05:35:03.705Z,99.90
2022-08-02T05:37:31.895Z,99.90
2022-08-02T05:40:00.842Z,99.90
2022-08-02T05:42:31.519Z,99.90
2022-08-02T05:44:58.654Z,99.90
2022-08-02T05:47:26.004Z,99.90
2022-08-02T05:49:53.014Z,99.90
2022-08-02T05:52:22.016Z,99.90
2022-08-02T05:55:04.982Z,99.90
2022-08-02T05:57:53.606Z,99.90
2022-08-02T06:00:22.022Z,99.90
2022-08-02T06:03:01.103Z,99.90
2022-08-02T06:05:32.197Z,99.90
2022-08-02T06:07:59.700Z,99.90
2022-08-02T06:10:28.584Z,99.90
2022-08-02T06:13:08.232Z,99.90
2022-08-02T06:15:40.683Z,99.90
2022-08-02T06:18:20.146Z,99.90
2022-08-02T06:20:59.232Z,99.90
2022-08-02T06:23:59.141Z,99.90
2022-08-02T06:26:29.672Z,99.90
2022-08-02T06:28:58.049Z,99.90
2022-08-02T06:31:25.575Z,99.90
2022-08-02T06:33:53.168Z,99.90
2022-08-02T06:36:40.905Z,99.90
2022-08-02T06:39:25.740Z,99.90
2022-08-02T06:41:57.866Z,99.90
2022-08-02T06:44:47.938Z,99.90
2022-08-02T06:47:13.409Z,99.90
2022-08-02T06:49:51.751Z,99.90
2022-08-02T06:52:30.322Z,99.90
2022-08-02T06:54:59.489Z,99.90
2022-08-02T06:57:27.382Z,99.90
2022-08-02T06:59:54.225Z,99.90
2022-08-02T07:02:21.153Z,99.90
2022-08-02T07:04:48.312Z,99.90
2022-08-02T07:07:15.165Z,99.90
2022-08-02T07:09:56.951Z,99.90
2022-08-02T07:12:32.649Z,99.90
2022-08-02T07:15:02.652Z,99.90
2022-08-02T07:17:30.113Z,99.90
2022-08-02T07:19:57.570Z,99.90
2022-08-02T07:22:26.694Z,99.90
2022-08-02T07:24:54.999Z,99.90
2022-08-02T07:27:22.081Z,99.90
2022-08-02T07:29:49.055Z,99.90
2022-08-02T07:32:21.904Z,99.90
2022-08-02T07:34:51.266Z,99.90
2022-08-02T07:37:54.140Z,99.90
2022-08-02T07:40:14.608Z,99.90
2022-08-02T07:42:47.226Z,99.90
2022-08-02T07:45:14.901Z,99.90
2022-08-02T07:47:43.958Z,99.90
2022-08-02T07:50:12.260Z,99.90
2022-08-02T07:52:40.740Z,99.90
2022-08-02T07:55:08.907Z,99.90
2022-08-02T07:57:36.941Z,99.90
2022-08-02T08:00:06.713Z,99.90
2022-08-02T08:02:33.523Z,99.90
2022-08-02T08:05:00.322Z,99.90
2022-08-02T08:07:27.035Z,99.90
2022-08-02T08:09:56.639Z,99.90
2022-08-02T08:12:24.247Z,99.90
2022-08-02T08:14:51.369Z,99.90
2022-08-02T08:17:18.370Z,99.90
2022-08-02T08:19:50.195Z,99.90
2022-08-02T08:22:21.718Z,99.90
2022-08-02T08:24:49.156Z,99.90
2022-08-02T08:27:18.120Z,99.90
2022-08-02T08:29:45.903Z,99.90
2022-08-02T08:32:17.676Z,99.90
2022-08-02T08:34:46.633Z,99.90
2022-08-02T08:37:16.944Z,99.90
2022-08-02T08:39:57.932Z,99.90
2022-08-02T08:42:31.055Z,99.90
2022-08-02T08:44:59.371Z,99.90
2022-08-02T08:47:38.697Z,99.90
2022-08-02T08:50:14.819Z,99.90
2022-08-02T08:52:52.064Z,99.90
2022-08-02T08:55:22.465Z,99.90
2022-08-02T08:57:49.582Z,99.90
2022-08-02T09:00:16.887Z,99.90
2022-08-02T09:02:44.348Z,99.90
2022-08-02T09:05:14.066Z,99.90
2022-08-02T09:07:42.827Z,99.90
2022-08-02T09:10:31.292Z,99.90
2022-08-02T09:13:37.823Z,99.90
2022-08-02T09:16:12.347Z,99.90
2022-08-02T09:18:46.910Z,99.90
2022-08-02T09:21:16.348Z,99.90
2022-08-02T09:23:49.288Z,99.90
2022-08-02T09:26:19.208Z,99.90
2022-08-02T09:29:01.783Z,99.90
2022-08-02T09:31:28.835Z,99.90
2022-08-02T09:33:57.971Z,99.90
2022-08-02T09:36:26.042Z,99.90
2022-08-02T09:39:01.480Z,99.90
2022-08-02T09:41:30.483Z,99.90
2022-08-02T09:44:04.285Z,99.90
2022-08-02T09:46:38.472Z,99.90
2022-08-02T09:49:10.109Z,99.90
2022-08-02T09:51:39.787Z,99.90
2022-08-02T09:54:12.078Z,99.90
2022-08-02T09:56:49.676Z,99.90
2022-08-02T09:59:18.614Z,99.90
2022-08-02T10:01:51.466Z,99.90
2022-08-02T10:04:30.603Z,99.90
2022-08-02T10:06:59.680Z,99.90
2022-08-02T10:09:28.989Z,99.90
2022-08-02T10:11:56.921Z,99.90
2022-08-02T10:14:24.300Z,99.90
2022-08-02T10:16:54.673Z,99.90
2022-08-02T10:20:00.646Z,99.90
2022-08-02T10:22:15.177Z,99.90
2022-08-02T10:24:48.095Z,99.90
2022-08-02T10:27:20.834Z,99.90
2022-08-02T10:29:55.212Z,99.90
2022-08-02T10:32:31.320Z,99.90
2022-08-02T10:35:19.578Z,99.90
2022-08-02T10:37:56.040Z,99.90
2022-08-02T10:40:23.397Z,99.90
2022-08-02T10:42:52.560Z,99.90
2022-08-02T10:45:21.907Z,99.90
2022-08-02T10:48:04.167Z,99.90
2022-08-02T10:50:49.111Z,99.90
2022-08-02T10:53:28.827Z,99.90
2022-08-02T10:55:58.925Z,99.90
2022-08-02T10:58:32.458Z,99.90
2022-08-02T11:01:23.498Z,99.90
2022-08-02T11:03:50.395Z,99.90
2022-08-02T11:06:17.151Z,99.90
2022-08-02T11:09:33.969Z,99.90
2022-08-02T11:12:05.219Z,99.90
2022-08-02T11:14:34.644Z,99.90
2022-08-02T11:17:05.469Z,99.90
2022-08-02T11:19:34.006Z,99.90
2022-08-02T11:22:02.895Z,99.90
2022-08-02T11:24:31.265Z,99.90
2022-08-02T11:27:00.539Z,99.90
2022-08-02T11:29:42.185Z,99.90
2022-08-02T11:32:20.221Z,99.90
2022-08-02T11:34:52.593Z,99.90
2022-08-02T11:37:35.629Z,99.90
2022-08-02T11:40:04.573Z,99.90
2022-08-02T11:42:35.885Z,99.90
2022-08-02T11:45:04.120Z,99.90
2022-08-02T11:47:31.694Z,99.90
2022-08-02T11:50:09.337Z,99.90
2022-08-02T11:52:37.059Z,99.90
2022-08-02T11:55:06.177Z,99.90
2022-08-02T11:58:03.075Z,99.90
2022-08-02T12:00:27.060Z,99.90
2022-08-02T12:02:57.772Z,99.90
2022-08-02T12:05:51.241Z,99.90
2022-08-02T12:08:11.717Z,99.90
2022-08-02T12:10:50.217Z,99.90
2022-08-02T12:13:17.270Z,99.90
2022-08-02T12:15:47.172Z,99.90
2022-08-02T12:18:40.699Z,99.90
2022-08-02T12:21:25.056Z,99.90
2022-08-02T12:23:59.266Z,99.90
2022-08-02T12:26:29.081Z,99.90
2022-08-02T12:28:58.675Z,99.90
2022-08-02T12:31:57.073Z,99.10
2022-08-02T12:34:31.945Z,99.60
2022-08-02T12:37:05.219Z,97.90
2022-08-02T12:39:39.810Z,98.50
2022-08-02T12:42:09.731Z,97.50
2022-08-02T12:44:38.598Z,97.80
2022-08-02T12:47:12.172Z,98.30
2022-08-02T12:49:38.958Z,97.50
2022-08-02T12:52:24.801Z,97.40
2022-08-02T12:54:51.748Z,96.60
2022-08-02T12:57:19.790Z,95.40
2022-08-02T12:59:53.247Z,95.20
2022-08-02T13:02:21.536Z,95.00
2022-08-02T13:04:50.037Z,95.10
2022-08-02T13:07:17.882Z,94.60
2022-08-02T13:09:45.953Z,95.40
2022-08-02T13:12:13.264Z,93.50
2022-08-02T13:14:41.879Z,93.80
2022-08-02T13:17:10.005Z,93.40
2022-08-02T13:19:38.239Z,94.30
2022-08-02T13:22:05.615Z,93.40
2022-08-02T13:24:40.618Z,94.00
2022-08-02T13:27:21.247Z,92.80
2022-08-02T13:29:49.503Z,92.10
2022-08-02T13:32:17.060Z,92.30
2022-08-02T13:34:44.455Z,91.20
2022-08-02T13:37:11.539Z,91.30
2022-08-02T13:39:40.644Z,89.00
2022-08-02T13:42:07.562Z,88.30
2022-08-02T13:44:35.128Z,87.80
2022-08-02T13:47:03.155Z,88.90
2022-08-02T13:49:51.425Z,86.90
2022-08-02T13:52:17.607Z,90.10
2022-08-02T13:54:44.459Z,87.70
2022-08-02T13:57:11.282Z,86.50
2022-08-02T13:59:56.362Z,86.60
2022-08-02T14:02:26.240Z,86.60
2022-08-02T14:04:53.029Z,89.90
2022-08-02T14:07:20.121Z,86.70
2022-08-02T14:09:47.161Z,86.40
2022-08-02T14:12:14.634Z,84.10
2022-08-02T14:14:41.886Z,85.40
2022-08-02T14:17:08.687Z,86.00
2022-08-02T14:19:35.597Z,83.40
2022-08-02T14:22:11.664Z,80.40
2022-08-02T14:24:39.900Z,82.10
2022-08-02T14:27:07.211Z,81.20
2022-08-02T14:29:34.423Z,81.80
2022-08-02T14:32:01.680Z,81.10
2022-08-02T14:34:28.563Z,78.50
2022-08-02T14:36:56.772Z,80.10
2022-08-02T14:39:23.662Z,80.80
2022-08-02T14:41:58.110Z,79.90
2022-08-02T14:44:27.618Z,80.20
2022-08-02T14:46:54.960Z,79.10
2022-08-02T14:49:25.485Z,79.60
2022-08-02T14:51:56.459Z,78.40
2022-08-02T14:54:27.997Z,79.30
2022-08-02T14:57:02.658Z,80.70
2022-08-02T14:59:30.359Z,80.50
2022-08-02T15:01:57.868Z,79.30
2022-08-02T15:04:25.443Z,78.00
2022-08-02T15:06:53.163Z,78.40
2022-08-02T15:09:20.586Z,78.50
2022-08-02T15:11:49.115Z,78.20
2022-08-02T15:14:21.921Z,77.80
2022-08-02T15:16:58.451Z,79.40
2022-08-02T15:19:56.393Z,78.50
2022-08-02T15:22:16.650Z,76.40
2022-08-02T15:24:46.165Z,76.50
2022-08-02T15:27:14.343Z,75.00
2022-08-02T15:29:42.050Z,76.20
2022-08-02T15:32:09.162Z,75.80
2022-08-02T15:34:36.263Z,76.70
2022-08-02T15:37:03.186Z,74.70
2022-08-02T15:39:30.426Z,75.10
2022-08-02T15:41:57.419Z,75.30
2022-08-02T15:44:25.207Z,76.20
2022-08-02T15:46:53.644Z,76.30
2022-08-02T15:49:23.640Z,76.40
2022-08-02T15:51:51.964Z,76.50
2022-08-02T15:54:18.933Z,75.70
2022-08-02T15:56:45.737Z,75.40
2022-08-02T15:59:12.555Z,74.80
2022-08-02T16:01:43.598Z,75.00
2022-08-02T16:04:14.301Z,74.30
2022-08-02T16:06:41.164Z,75.20
2022-08-02T16:09:08.049Z,74.00
2022-08-02T16:11:34.895Z,73.50
2022-08-02T16:14:01.812Z,72.80
2022-08-02T16:16:30.841Z,72.30
2022-08-02T16:18:57.823Z,71.70
2022-08-02T16:21:25.404Z,72.20
2022-08-02T16:23:59.183Z,70.90
2022-08-02T16:26:34.814Z,70.00
2022-08-02T16:29:03.957Z,69.30
2022-08-02T16:31:30.818Z,69.50
2022-08-02T16:33:57.789Z,68.60
2022-08-02T16:36:30.413Z,69.10
2022-08-02T16:38:57.646Z,68.10
2022-08-02T16:41:50.463Z,68.30
2022-08-02T16:44:11.718Z,67.90
2022-08-02T16:46:39.256Z,69.60
2022-08-02T16:49:06.819Z,69.50
2022-08-02T16:51:54.096Z,68.70
2022-08-02T16:54:21.021Z,68.70
2022-08-02T16:56:47.881Z,68.90
2022-08-02T16:59:15.738Z,69.80
2022-08-02T17:02:11.845Z,69.90
2022-08-02T17:04:29.615Z,70.50
2022-08-02T17:06:56.486Z,70.40
2022-08-02T17:10:02.988Z,71.50
2022-08-02T17:12:16.041Z,71.50
2022-08-02T17:14:54.850Z,72.60
2022-08-02T17:17:34.149Z,73.20
2022-08-02T17:20:02.291Z,73.20
2022-08-02T17:22:29.191Z,74.00
2022-08-02T17:24:56.286Z,74.20
2022-08-02T17:27:26.270Z,74.10
2022-08-02T17:29:53.602Z,75.30
2022-08-02T17:32:20.655Z,75.10
2022-08-02T17:34:56.521Z,75.80
2022-08-02T17:37:28.586Z,76.60
2022-08-02T17:39:57.215Z,76.60
2022-08-02T17:42:25.038Z,76.70
2022-08-02T17:45:00.866Z,77.40
2022-08-02T17:50:21.133Z,77.60
2022-08-02T17:52:53.375Z,77.90
2022-08-02T17:55:20.749Z,79.80
2022-08-02T17:57:55.591Z,78.70
2022-08-02T18:00:26.843Z,78.60
2022-08-02T18:02:55.442Z,80.20
2022-08-02T18:05:39.077Z,78.90
2022-08-02T18:08:08.723Z,78.60
2022-08-02T18:10:35.600Z,78.90
2022-08-02T18:13:03.718Z,79.20
2022-08-02T18:15:32.611Z,80.00
2022-08-02T18:18:00.447Z,79.10
2022-08-02T18:20:27.223Z,79.40
2022-08-02T18:22:55.834Z,78.70
2022-08-02T18:25:37.206Z,78.70
2022-08-02T18:28:11.636Z,79.20
2022-08-02T18:30:39.109Z,79.40
2022-08-02T18:33:56.940Z,79.30
2022-08-02T18:35:55.397Z,79.90
2022-08-02T18:38:23.410Z,80.20
2022-08-02T18:40:50.784Z,80.80
2022-08-02T18:43:18.795Z,80.60
2022-08-02T18:46:06.081Z,81.20
2022-08-02T18:48:38.056Z,81.70
2022-08-02T18:51:06.381Z,81.80
2022-08-02T18:53:41.444Z,81.90
2022-08-02T18:56:24.584Z,82.50
2022-08-02T18:58:53.241Z,82.20
2022-08-02T19:01:33.838Z,82.10
2022-08-02T19:04:04.327Z,82.90
2022-08-02T19:06:31.643Z,83.00
2022-08-02T19:09:05.477Z,83.00
2022-08-02T19:11:38.576Z,82.80
2022-08-02T19:14:08.420Z,83.40
2022-08-02T19:16:37.442Z,83.90
2022-08-02T19:19:06.370Z,83.90
2022-08-02T19:22:15.720Z,84.00
2022-08-02T19:24:20.355Z,84.50
2022-08-02T19:26:51.933Z,85.30
2022-08-02T19:29:24.975Z,85.00
2022-08-02T19:32:40.356Z,85.20
2022-08-02T19:34:55.937Z,85.50
2022-08-02T19:37:22.824Z,86.00
2022-08-02T19:39:50.906Z,86.70
2022-08-02T19:42:18.713Z,86.60
2022-08-02T19:44:46.433Z,87.20
2022-08-02T19:47:19.265Z,87.20
2022-08-02T19:49:48.747Z,87.70
2022-08-02T19:52:21.698Z,88.00
2022-08-02T19:54:54.488Z,87.80
2022-08-02T19:57:22.988Z,88.30
2022-08-02T19:59:52.274Z,88.40
2022-08-02T20:02:19.649Z,88.40
2022-08-02T20:04:50.307Z,88.80
2022-08-02T20:07:55.328Z,89.30
2022-08-02T20:10:10.799Z,89.30
2022-08-02T20:12:39.987Z,89.80
2022-08-02T20:15:14.742Z,90.10
2022-08-02T20:17:47.591Z,90.80
2022-08-02T20:20:16.870Z,91.10
2022-08-02T20:23:32.901Z,91.10
2022-08-02T20:25:51.216Z,91.50
2022-08-02T20:28:21.921Z,91.70
2022-08-02T20:30:49.441Z,92.70
2022-08-02T20:33:21.863Z,92.80
2022-08-02T20:35:51.540Z,93.10
2022-08-02T20:38:20.189Z,93.40
2022-08-02T20:40:52.063Z,93.60
2022-08-02T20:43:18.980Z,94.90
2022-08-02T20:45:46.482Z,95.10
2022-08-02T20:48:13.293Z,96.10
2022-08-02T20:50:49.246Z,96.40
2022-08-02T20:53:23.955Z,96.80
2022-08-02T20:55:55.146Z,97.20
2022-08-02T20:58:26.822Z,98.20
2022-08-02T21:00:59.053Z,98.70
2022-08-02T21:03:38.774Z,99.30
2022-08-02T21:06:08.067Z,99.90
2022-08-02T21:08:35.066Z,99.90
2022-08-02T21:11:09.218Z,99.90
2022-08-02T21:13:46.992Z,99.90
2022-08-02T21:16:23.404Z,99.90
2022-08-02T21:18:55.728Z,99.90
2022-08-02T21:21:27.384Z,99.90
2022-08-02T21:23:55.136Z,99.90
2022-08-02T21:26:28.127Z,99.90
2022-08-02T21:28:57.190Z,99.90
2022-08-02T21:31:29.696Z,99.90
2022-08-02T21:33:59.435Z,99.90
2022-08-02T21:36:31.621Z,99.90
2022-08-02T21:39:08.033Z,99.90
2022-08-02T21:41:39.658Z,99.90
2022-08-02T21:44:17.095Z,99.90
2022-08-02T21:46:49.404Z,99.90
2022-08-02T21:49:27.365Z,99.90
2022-08-02T21:52:08.479Z,99.90
2022-08-02T21:54:35.367Z,99.90
2022-08-02T21:57:07.309Z,99.90
2022-08-02T21:59:35.090Z,99.90
2022-08-02T22:02:02.211Z,99.90
2022-08-02T22:04:29.024Z,99.90
2022-08-02T22:06:57.247Z,99.90
2022-08-02T22:09:43.917Z,99.90
2022-08-02T22:12:17.584Z,99.90
2022-08-02T22:14:53.826Z,99.90
2022-08-02T22:17:50.818Z,99.90
2022-08-02T22:20:09.619Z,99.90
2022-08-02T22:22:39.607Z,99.90
2022-08-02T22:25:10.288Z,99.90
2022-08-02T22:28:35.816Z,99.90
2022-08-02T22:30:40.518Z,99.90
2022-08-02T22:33:33.183Z,99.90
2022-08-02T22:36:01.210Z,99.90
2022-08-02T22:38:28.774Z,99.90
2022-08-02T22:40:55.778Z,99.90
2022-08-02T22:43:23.416Z,99.90
2022-08-02T22:45:50.795Z,99.90
2022-08-02T22:48:18.193Z,99.90
2022-08-02T22:50:45.034Z,99.90
2022-08-02T22:53:12.462Z,99.90
2022-08-02T22:55:41.313Z,99.90
2022-08-02T22:58:09.268Z,99.90
2022-08-02T22:58:40.417Z,77.30
2022-08-02T23:00:36.155Z,99.90
2022-08-02T23:03:06.780Z,99.90
2022-08-02T23:05:34.149Z,99.90
2022-08-02T23:08:01.454Z,99.90
2022-08-02T23:10:28.862Z,99.90
2022-08-02T23:12:59.040Z,99.90
2022-08-02T23:15:26.905Z,99.90
2022-08-02T23:18:12.825Z,99.90
2022-08-02T23:20:40.810Z,99.90
2022-08-02T23:23:11.419Z,99.90
2022-08-02T23:25:38.710Z,99.90
2022-08-02T23:28:05.505Z,99.90
2022-08-02T23:30:32.453Z,99.90
2022-08-02T23:32:59.241Z,99.90
2022-08-02T23:35:26.016Z,99.90
2022-08-02T23:37:59.720Z,99.90
2022-08-02T23:40:38.652Z,99.90
2022-08-02T23:43:14.422Z,99.90
2022-08-02T23:45:43.291Z,99.90
2022-08-02T23:48:10.051Z,99.90
2022-08-02T23:50:36.901Z,99.90
2022-08-02T23:53:04.118Z,99.90
2022-08-02T23:55:31.024Z,99.90
2022-08-02T23:57:57.748Z,99.90
